Akhiok, AK

7:31 AM AKDT on May 25, 2015 (GMT -0800)
RAWS | | Change Station
CLOSE
Current Station
Personal Weather Station
Location: Kodiak, AK
Elevation: 100 ft
Nearby Weather Stations

Elev 100 ft 57.00 °N, 153.54 °W | Updated 36 minutes ago

Mostly Cloudy
Mostly Cloudy
43 °F
Feels Like 43 °F
N
0
Wind Variable Wind from North
Gusts 0.0 mph

Today
High -- | Low -- °F
--% Chance of Precip.
Yesterday
High -- | Low -- °F
Precip. -- in
5:41 AM 10:47 PM
Waxing Crescent, 49% visible
Pressure 30.06 in
Visibility 10.0 miles
Clouds Few 1200 ft
Scattered Clouds 2200 ft
Mostly Cloudy 4300 ft
Windchill 43 °F
Dew Point 42 °F
Humidity 95%
Rainfall in
Snow Depth Not available.
UV 0 out of 12
Pollen Not available.
Air Quality Not available.
Flu Activity Local Activity
METAR PADQ 251453Z 18003KT 10SM FEW012 SCT022 BKN043 07/06 A3005 RMK AO2 SLP177 T00720061 53007

More Conditions Fewer Conditions

Pressure 30.06 in
Visibility 10.0 miles
Clouds Few 1200 ft
Scattered Clouds 2200 ft
Mostly Cloudy 4300 ft
Windchill 43 °F
Dew Point 42 °F
Humidity 95%
Rainfall in
Snow Depth Not available.
UV 0 out of 12
Pollen Not available.
Air Quality Not available.
Flu Activity Local Activity
METAR PADQ 251453Z 18003KT 10SM FEW012 SCT022 BKN043 07/06 A3005 RMK AO2 SLP177 T00720061 53007

More Conditions Fewer Conditions

10-Day Weather Forecast

Almanac

Astronomy

May. 25, 2015 Rise Set
Actual Time
Civil Twilight
Nautical Twilight
Astronomical Twilight
Moon
Length of Visible Light
Length of Day
Tomorrow will be .
, % of the Moon is Illuminated

Today's Extremes

State Highs State Lows

Community

WunderPhotos

Upload Photos

1,824,030 photos uploaded!

WunderBlogs® & News

Nearby

Air Quality

  Air Quality AQ Index Pollutant
Not available.

Snow Depth

Station Depth Elevation

Earthquake Activity

City Distance Mag. Time & Date
Minimum magnitude displayed is 2.5.

Coastal Water Temperatures

Place Temperature

Stations

Nearby Weather Stations

Station Location Temp. Windchill Dew Point Humidity Wind Precip. Elev Updated Type